カルガリー国際空港の過去48時間の天気

カルガリー国際空港 (Calgary International)

現在時刻: 5/25 19:11 MDT (5/26 01:11 UTC) 以下の時間は現地時間です。

過去48時間のMETAR気象情報
時間 風向 風速(m/s) 視程 気温(℃) 湿度(%) 気圧(hPa) 天気現象
25 18:00 西 7 10km以上 19 21 1007.6
25 17:00 西北西 5 10km以上 19 21 1008
25 16:00 西南西 3 10km以上 19 22 1008.2
25 15:00 北西 5 10km以上 18 24 1008.3
25 14:00 3 10km以上 17 25 1008.4
25 13:00 西北西 6 10km以上 17 25 1008.4
25 12:00 西北西 4 10km以上 17 29 1008.7
25 11:00 西北西 7 10km以上 17 27 1009.1
25 10:00 西 5 10km以上 15 33 1009.6
25 09:00 西 5 10km以上 14 36 1009.6
25 08:00 静穏 0 10km以上 12 47 1010.3
25 07:00 西北西 2 10km以上 11 47 1010.2
25 06:00 南西 3 10km以上 9 53 1010.1
25 05:00 静穏 0 10km以上 8 53 1010.4
25 04:00 静穏 0 10km以上 9 46 1010.7
25 03:00 静穏 0 10km以上 10 43 1010.4
25 02:00 西北西 1 10km以上 11 40 1010.6
25 01:00 西南西 2 10km以上 11 40 1010.8
25 00:00 西 4 10km以上 12 38 1010.8
24 23:00 西 2 10km以上 13 41 1011.2
24 22:00 南南西 2 10km以上 13 44 1011.4
24 21:24 南南西 2 10km以上 13 44 1011.3
24 21:07 南東 3 10km以上 14 41 1011.3 弱いしゅう雨
24 20:00 南南西 3 10km以上 14 44 1011.5
24 19:00 南東 5 10km以上 15 39 1012
24 18:00 不定 1 10km以上 16 36 1012.3
24 17:00 2 10km以上 16 34 1012.7
24 16:00 北北東 2 10km以上 14 41 1014
24 15:54 不定 2 10km以上 14 41 1014.1
24 15:25 南南西 7 10km以上 13 44 1014.7 弱いしゅう雨
24 15:00 南西 8 10km以上 15 36 1014.3 弱いしゅう雨
24 14:53 6 10km以上 15 39 1014.1 弱いしゅう雨
24 14:00 不定 2 10km以上 16 29 1013.7
24 13:00 静穏 0 10km以上 16 34 1014.1
24 12:00 北西 3 10km以上 15 33 1014.1
24 11:00 5 10km以上 15 39 1014.4
24 10:00 6 10km以上 15 36 1014.8
24 09:00 6 10km以上 14 38 1014.7
24 08:00 6 10km以上 11 47 1014.7
24 07:00 北北西 6 10km以上 10 40 1014.5
24 06:00 北北西 6 10km以上 10 37 1013.7
24 05:00 北北西 4 10km以上 11 35 1013.4
24 04:00 北北西 4 10km以上 10 37 1013.2
24 03:00 2 10km以上 8 46 1013
24 02:00 北北西 2 10km以上 8 46 1013
24 01:00 北西 3 10km以上 12 32 1012.4 周辺でしゅう雨
24 00:00 西 2 10km以上 14 29 1012.6 周辺でしゅう雨
23 23:00 北西 3 10km以上 14 31 1012.9
23 22:00 北東 3 10km以上 14 29 1012.7
23 21:00 北北東 9 10km以上 15 31 1012.8
23 20:48 北北東 7 10km以上 16 29 1012.7
23 20:02 西南西 4 10km以上 17 22 1012.7 弱いしゅう雨
CYYC 260000Z 28014G21KT 30SM BKN100 19/M04 A2974 RMK AC5 VIRGA NE SLP076 DENSITY ALT 5200FT
CYYC 252300Z 30010G16KT 40SM BKN088 19/M04 A2974 RMK AC6 SLP080 DENSITY ALT 5200FT
CYYC 252200Z 25006KT 230V340 40SM BKN087 BKN220 19/M03 A2975 RMK AC6CI1 VIRGA NW-N SLP082 DENSITY ALT 5100FT
CYYC 252100Z 32010KT 290V360 40SM BKN086 BKN110 BKN220 18/M03 A2975 RMK AC6AC1CI1 AC TR SLP083 DENSITY ALT 5000FT
CYYC 252000Z 36006KT 280V040 40SM BKN083 OVC100 17/M03 A2976 RMK AC7AC1 SLP084 DENSITY ALT 4900FT
CYYC 251900Z 29011KT 280V010 40SM BKN076 BKN100 BKN220 17/M03 A2976 RMK AC6AC1CI1 CI TR SLP084 DENSITY ALT 4900FT
CYYC 251800Z 29007KT 230V330 40SM BKN071 BKN220 17/M01 A2977 RMK AC5CI2 SLP087 DENSITY ALT 4900FT
CYYC 251700Z 29013KT 230V320 40SM BKN069 BKN210 17/M02 A2978 RMK AC5CI2 SLP091 DENSITY ALT 4800FT
CYYC 251600Z 27009G15KT 220V300 40SM SCT110 BKN220 15/M01 A2979 RMK AC3CI4 SLP096 DENSITY ALT 4700FT
CYYC 251500Z CCA 28009KT 35SM BKN100 BKN200 14/M01 A2979 RMK AC5CI2 SLP096 DENSITY ALT 4500FT
CYYC 251400Z 00000KT 35SM FEW077 BKN100 BKN160 12/01 A2980 RMK AC1AC5AC1 SLP103 DENSITY ALT 4200FT
CYYC 251300Z 30003KT 210V310 20SM BKN087 BKN160 11/00 A2980 RMK AC5AC2 SLP102 DENSITY ALT 4200FT
CYYC 251200Z 23005KT 210V360 20SM SCT059 BKN150 BKN220 09/M00 A2979 RMK SC3AC3CI1 SLP101 DENSITY ALT 4000FT
CYYC 251100Z 00000KT 15SM BKN095 BKN160 08/M01 A2980 RMK AC5AC2 SLP104 DENSITY ALT 3800FT
CYYC 251000Z 00000KT 15SM BKN110 BKN160 09/M02 A2980 RMK AC5AC1 SLP107 DENSITY ALT 3900FT
CYYC 250900Z 00000KT 15SM SCT130 10/M02 A2980 RMK AC3 SLP104 DENSITY ALT 4000FT
CYYC 250800Z 29002KT 15SM BKN130 11/M02 A2982 RMK AC6 SLP106 DENSITY ALT 4100FT
CYYC 250700Z 25003KT 220V310 15SM SCT084 11/M02 A2982 RMK AC3 SLP108 DENSITY ALT 4100FT
CYYC 250600Z 28007KT 15SM FEW150 SCT220 12/M02 A2982 RMK AC1CI2 SLP108 DENSITY ALT 4200FT
CYYC 250500Z 26004KT 220V280 15SM SCT100 BKN220 13/00 A2984 RMK AC3CI3 SLP112 DENSITY ALT 4300FT
CYYC 250400Z 21004KT 20SM FEW076 BKN150 BKN220 13/01 A2984 RMK AC2AC4CI1 SLP114 DENSITY ALT 4300FT
CYYC 250324Z 21004KT 30SM FEW078 BKN150 BKN220 13/01 A2984 RMK ACC2AC3CI2 OCNL -SHRA/ VIRGA NE SLP113 DENSITY ALT 4400FT
CYYC 250307Z 14005KT 130V280 30SM -SHRA SCT078 BKN140 BKN220 14/01 A2984 RMK ACC3AC3CI1 SLP113 DENSITY ALT 4500FT
CYYC 250200Z 20006KT 30SM FEW086 BKN160 BKN240 14/02 A2984 RMK AC2AC3CI2 VIRGA SW SLP115 DENSITY ALT 4500FT
CYYC 250100Z 14010G16KT 15SM FEW050 SCT180 BKN300 15/01 A2985 RMK SC2AC2CI3 SLP120 DENSITY ALT 4600FT
CYYC 250000Z VRB02KT 15SM FEW050TCU SCT180 OVC300 16/01 A2986 RMK TCU1AC3CI5 TCU TR SLP123 DENSITY ALT 4600FT
CYYC 242300Z 17004KT 110V200 15SM FEW050TCU SCT180 OVC300 16/00 A2988 RMK TCU1AC2CI5 SLP127 DENSITY ALT 4600FT
CYYC 242200Z 02004KT 15SM SCT050TCU BKN086 OVC300 14/01 A2990 RMK TCU3AC2CI3 SLP140 DENSITY ALT 4400FT
CYYC 242154Z VRB04KT 15SM SCT050TCU BKN086 OVC300 14/01 A2991 RMK TCU3AC2CI3 SLP141 DENSITY ALT 4400FT
CYYC 242125Z 20014G24KT 15SM -SHRA BKN050TCU BKN100 OVC300 13/01 A2992 RMK TCU6AC1CI1 SLP147 DENSITY ALT 4300FT
CYYC 242100Z 23015KT 160V240 15SM -SHRA BKN060TCU BKN300 15/00 A2991 RMK TCU5CI1 SLP143 DENSITY ALT 4500FT
CYYC 242053Z 18011G20KT 15SM -SHRA BKN060TCU BKN300 15/01 A2990 RMK TCU5CI1 SLP141 DENSITY ALT 4500FT
CYYC 242000Z VRB04KT 15SM BKN070TCU BKN300 16/M02 A2990 RMK TCU5CI1 CI TR SLP137 DENSITY ALT 4600FT
CYYC 241900Z 00000KT 15SM BKN070 16/M00 A2992 RMK CU5 SLP141 DENSITY ALT 4600FT
CYYC 241800Z 32005KT 310V110 40SM FEW070 FEW300 15/M01 A2993 RMK CU1CI1 CI TR SLP141 DENSITY ALT 4500FT
CYYC 241700Z 36010KT 40SM FEW060 SCT300 15/01 A2994 RMK CU1CI3 CU TR SLP144 DENSITY ALT 4500FT
CYYC 241600Z 36011KT 40SM FEW087 SCT300 15/00 A2995 RMK ACC1CI3 SLP148 DENSITY ALT 4400FT
CYYC 241500Z 01012G18KT 40SM SCT087 BKN300 14/00 A2994 RMK ACC4CI1 SLP147 DENSITY ALT 4300FT
CYYC 241400Z 36011KT 40SM FEW080 SCT120 BKN300 11/M00 A2994 RMK ACC1AC2CI3 DIST SH SE SLP147 DENSITY ALT 4000FT
CYYC 241300Z 34011KT 40SM FEW080 SCT140 BKN300 10/M03 A2993 RMK ACC2AC1CI3 DIST SH SE ACSL HIER LVL SLP145 DENSITY ALT 3900FT
CYYC 241200Z 34012KT 40SM SCT110 BKN180 OVC300 10/M04 A2991 RMK AC3AC2CI3 SLP137 DENSITY ALT 3900FT
CYYC 241100Z 33008G15KT 30SM FEW065 FEW110 SCT130 BKN180 BKN260 11/M04 A2991 RMK SC1AC1AC1AS2CS2 VIRGA ALQDS SLP134 DENSITY ALT 4000FT
CYYC 241000Z 34007KT 15SM FEW100 FEW110 SCT130 10/M04 A2989 RMK AC1AC1AS3 AC TR SLP132 DENSITY ALT 3900FT
CYYC 240900Z 35004KT 15SM FEW130 FEW180 SCT210 08/M03 A2988 RMK AC1AC1CI1 SLP130 DENSITY ALT 3700FT
CYYC 240800Z 34004KT 280V020 15SM FEW110 FEW150 SCT180 SCT210 08/M03 A2988 RMK AC1AC1AS1CI1 SLP130 DENSITY ALT 3800FT
CYYC 240700Z CCA 31006KT 15SM VCSH FEW090 FEW100 SCT120 SCT140 BKN230 12/M04 A2988 RMK AC1ACC1AC1AC1CI1 VCSH N SLP124 DENSITY ALT 4100FT
CYYC 240600Z 28004KT 250V310 15SM VCSH SCT110TCU BKN130 14/M04 A2989 RMK TCU4ACC1 VCSH N SLP126 DENSITY ALT 4400FT
CYYC 240500Z 31005KT 20SM FEW080CB SCT095TCU BKN130 BKN210 14/M03 A2989 RMK CB1TCU3AC1CI1 CI TR CB CLD N-NE MOVG E SLP129 DENSITY ALT 4400FT
CYYC 240400Z 04006KT 40SM SCT070TCU BKN090 BKN100 OVC260 14/M04 A2989 RMK TCU4AC1AC1CS2 HVY VIRGA NW-S SLP127 DENSITY ALT 4400FT
CYYC 240300Z 03017G29KT 40SM BKN075TCU BKN090 15/M02 A2988 RMK TCU5AC2 VIRGA ALQDS SLP128 DENSITY ALT 4500FT
CYYC 240248Z 02014KT 020V170 40SM FEW040 BKN070TCU BKN095 BKN260 16/M02 A2988 RMK CF1TCU5AC2CI1 CF TR CI TR OCNL-SHRA SLP127 DENSITY ALT 4600FT
CYYC 240202Z 25007KT 210V350 14SM -SHRA SCT040TCU BKN075 BKN260 17/M05 A2988 RMK TCU4ACC1CI1 CI TR VIS SW MTS 40 SLP127 DENSITY ALT 4700FT